createdAt,value
2018-11-13T00:00:15.107Z,95.70
2018-11-13T00:02:43.462Z,95.70
2018-11-13T00:05:11.994Z,95.70
2018-11-13T00:07:40.187Z,95.70
2018-11-13T00:10:09.635Z,95.80
2018-11-13T00:12:37.848Z,95.80
2018-11-13T00:15:06.300Z,95.80
2018-11-13T00:17:34.646Z,95.80
2018-11-13T00:20:02.922Z,95.70
2018-11-13T00:22:31.170Z,95.70
2018-11-13T00:24:59.374Z,95.80
2018-11-13T00:27:27.660Z,95.80
2018-11-13T00:29:55.807Z,95.80
2018-11-13T00:32:24.007Z,95.80
2018-11-13T00:34:52.190Z,95.80
2018-11-13T00:37:20.390Z,95.80
2018-11-13T00:39:48.593Z,95.80
2018-11-13T00:42:16.765Z,95.90
2018-11-13T00:44:44.963Z,96.10
2018-11-13T00:47:13.150Z,96.10
2018-11-13T00:49:41.331Z,96.10
2018-11-13T00:52:09.522Z,96.20
2018-11-13T00:54:37.703Z,96.20
2018-11-13T00:57:05.911Z,96.20
2018-11-13T00:59:34.155Z,96.20
2018-11-13T01:02:02.432Z,96.20
2018-11-13T01:04:30.546Z,96.20
2018-11-13T01:06:58.754Z,96.20
2018-11-13T01:09:26.928Z,96.10
2018-11-13T01:11:55.267Z,96.10
2018-11-13T01:14:23.331Z,96.20
2018-11-13T01:16:51.528Z,96.10
2018-11-13T01:19:19.735Z,96.10
2018-11-13T01:21:47.923Z,96.00
2018-11-13T01:24:16.261Z,96.00
2018-11-13T01:26:44.328Z,95.90
2018-11-13T01:29:12.556Z,95.90
2018-11-13T01:31:40.723Z,95.90
2018-11-13T01:34:08.930Z,95.80
2018-11-13T01:36:37.119Z,95.80
2018-11-13T01:39:07.563Z,95.80
2018-11-13T01:41:35.772Z,95.80
2018-11-13T01:44:03.947Z,95.80
2018-11-13T01:46:32.227Z,95.80
2018-11-13T01:49:00.414Z,95.80
2018-11-13T01:51:28.607Z,95.80
2018-11-13T01:53:56.820Z,95.80
2018-11-13T01:56:24.998Z,95.70
2018-11-13T01:58:53.195Z,95.70
2018-11-13T02:01:21.384Z,95.70
2018-11-13T02:03:49.603Z,95.70
2018-11-13T02:06:17.811Z,95.70
2018-11-13T02:08:46.011Z,95.70
2018-11-13T02:11:14.219Z,95.70
2018-11-13T02:13:42.434Z,95.80
2018-11-13T02:16:10.639Z,95.90
2018-11-13T02:18:38.859Z,95.90
2018-11-13T02:21:07.055Z,96.00
2018-11-13T02:23:35.269Z,96.00
2018-11-13T02:26:03.470Z,95.90
2018-11-13T02:28:31.679Z,95.90
2018-11-13T02:31:01.181Z,95.90
2018-11-13T02:33:30.184Z,95.90
2018-11-13T02:35:58.392Z,96.00
2018-11-13T02:38:26.608Z,96.10
2018-11-13T02:40:54.815Z,96.10
2018-11-13T02:43:23.023Z,96.00
2018-11-13T02:45:51.240Z,96.00
2018-11-13T02:48:19.451Z,95.90
2018-11-13T02:50:47.667Z,95.90
2018-11-13T02:53:15.870Z,95.90
2018-11-13T02:55:44.088Z,95.90
2018-11-13T02:58:12.291Z,95.90
2018-11-13T03:00:40.524Z,95.90
2018-11-13T03:03:08.751Z,95.90
2018-11-13T03:05:36.975Z,95.90
2018-11-13T03:08:05.392Z,95.90
2018-11-13T03:10:33.613Z,95.90
2018-11-13T03:13:01.830Z,95.90
2018-11-13T03:15:30.036Z,95.90
2018-11-13T03:17:58.249Z,95.90
2018-11-13T03:20:26.452Z,95.90
2018-11-13T03:22:54.651Z,95.90
2018-11-13T03:25:23.271Z,96.00
2018-11-13T03:27:51.472Z,96.00
2018-11-13T03:30:23.750Z,96.00
2018-11-13T03:32:52.188Z,96.10
2018-11-13T03:35:20.391Z,96.10
2018-11-13T03:37:48.615Z,96.10
2018-11-13T03:40:17.011Z,96.20
2018-11-13T03:42:46.103Z,96.30
2018-11-13T03:45:14.685Z,96.40
2018-11-13T03:50:18.711Z,96.40
2018-11-13T03:52:47.003Z,96.40
2018-11-13T03:55:15.676Z,96.40
2018-11-13T03:57:44.666Z,96.30
2018-11-13T04:00:14.485Z,96.20
2018-11-13T04:02:42.665Z,96.20
2018-11-13T04:05:18.076Z,96.10
2018-11-13T04:07:47.498Z,96.10
2018-11-13T04:10:16.599Z,96.10
2018-11-13T04:12:44.944Z,96.10
2018-11-13T04:15:14.277Z,96.10
2018-11-13T04:17:42.446Z,96.10
2018-11-13T04:20:12.363Z,96.10
2018-11-13T04:22:40.614Z,96.20
2018-11-13T04:25:08.790Z,96.30
2018-11-13T04:27:37.104Z,96.30
2018-11-13T04:30:06.358Z,96.30
2018-11-13T04:32:34.535Z,96.30
2018-11-13T04:35:02.711Z,96.30
2018-11-13T04:37:30.887Z,96.40
2018-11-13T04:39:59.085Z,96.40
2018-11-13T04:42:27.267Z,96.70
2018-11-13T04:44:55.537Z,96.80
2018-11-13T04:47:23.858Z,96.90
2018-11-13T04:49:52.054Z,96.80
2018-11-13T04:52:20.247Z,96.80
2018-11-13T04:54:48.411Z,96.80
2018-11-13T04:57:16.586Z,96.80
2018-11-13T04:59:44.750Z,96.90
2018-11-13T05:02:12.926Z,96.80
2018-11-13T05:04:41.099Z,96.80
2018-11-13T05:07:09.275Z,97.00
2018-11-13T05:09:37.449Z,97.20
2018-11-13T05:12:05.737Z,97.30
2018-11-13T05:14:33.899Z,97.40
2018-11-13T05:17:02.089Z,97.40
2018-11-13T05:19:30.259Z,97.30
2018-11-13T05:21:58.431Z,97.30
2018-11-13T05:24:26.598Z,97.20
2018-11-13T05:26:54.778Z,97.10
2018-11-13T05:29:22.966Z,97.00
2018-11-13T05:31:51.138Z,97.00
2018-11-13T05:34:19.314Z,97.00
2018-11-13T05:36:47.481Z,97.10
2018-11-13T05:39:15.639Z,97.20
2018-11-13T05:41:43.832Z,97.20
2018-11-13T05:44:11.995Z,97.20
2018-11-13T05:46:40.171Z,97.10
2018-11-13T05:49:08.344Z,97.10
2018-11-13T05:51:36.516Z,97.10
2018-11-13T05:54:04.772Z,97.10
2018-11-13T05:56:32.939Z,97.30
2018-11-13T05:59:01.114Z,96.90
2018-11-13T06:01:29.330Z,96.80
2018-11-13T06:03:57.491Z,96.70
2018-11-13T06:06:25.672Z,96.50
2018-11-13T06:08:53.875Z,96.40
2018-11-13T06:11:22.067Z,96.30
2018-11-13T06:13:50.285Z,96.20
2018-11-13T06:16:18.466Z,96.20
2018-11-13T06:18:46.667Z,96.10
2018-11-13T06:21:14.842Z,96.10
2018-11-13T06:23:43.034Z,96.00
2018-11-13T06:26:11.483Z,96.10
2018-11-13T06:28:39.685Z,96.20
2018-11-13T06:31:07.876Z,96.20
2018-11-13T06:33:36.075Z,96.20
2018-11-13T06:36:04.319Z,96.20
2018-11-13T06:38:32.541Z,96.30
2018-11-13T06:41:00.710Z,96.30
2018-11-13T06:43:28.911Z,96.30
2018-11-13T06:45:57.088Z,96.40
2018-11-13T06:48:25.286Z,96.40
2018-11-13T06:50:53.475Z,96.40
2018-11-13T06:53:21.672Z,96.50
2018-11-13T06:55:52.539Z,96.50
2018-11-13T06:58:21.445Z,96.50
2018-11-13T07:00:49.661Z,96.60
2018-11-13T07:03:17.865Z,96.60
2018-11-13T07:05:46.115Z,96.60
2018-11-13T07:08:14.306Z,96.60
2018-11-13T07:10:42.549Z,96.70
2018-11-13T07:13:10.683Z,96.70
2018-11-13T07:15:40.635Z,96.70
2018-11-13T07:18:08.803Z,96.80
2018-11-13T07:20:36.979Z,96.70
2018-11-13T07:23:05.155Z,96.70
2018-11-13T07:25:33.408Z,96.80
2018-11-13T07:28:01.533Z,96.80
2018-11-13T07:30:29.679Z,96.80
2018-11-13T07:32:57.844Z,96.90
2018-11-13T07:35:26.022Z,97.00
2018-11-13T07:37:56.830Z,97.00
2018-11-13T07:40:25.085Z,97.10
2018-11-13T07:42:53.426Z,97.00
2018-11-13T07:45:21.595Z,97.00
2018-11-13T07:47:50.092Z,96.60
2018-11-13T07:50:18.088Z,96.40
2018-11-13T07:52:46.375Z,96.30
2018-11-13T07:55:15.467Z,96.10
2018-11-13T07:57:43.920Z,95.70
2018-11-13T08:00:14.273Z,95.30
2018-11-13T08:02:43.519Z,94.80
2018-11-13T08:05:11.703Z,94.10
2018-11-13T08:07:40.030Z,93.50
2018-11-13T08:10:09.477Z,92.40
2018-11-13T08:12:38.188Z,91.50
2018-11-13T08:15:08.774Z,91.30
2018-11-13T08:17:37.717Z,90.90
2018-11-13T08:20:08.185Z,90.20
2018-11-13T08:22:36.527Z,89.30
2018-11-13T08:25:05.387Z,87.30
2018-11-13T08:27:33.587Z,86.90
2018-11-13T08:30:02.143Z,85.40
2018-11-13T08:32:30.568Z,83.50
2018-11-13T08:34:59.125Z,82.90
2018-11-13T08:37:27.606Z,82.20
2018-11-13T08:39:55.994Z,80.20
2018-11-13T08:42:24.455Z,78.90
2018-11-13T08:44:52.904Z,76.10
2018-11-13T08:47:21.289Z,73.10
2018-11-13T08:49:49.795Z,71.20
2018-11-13T08:52:18.181Z,70.00
2018-11-13T08:54:46.687Z,68.70
2018-11-13T08:57:15.163Z,64.80
2018-11-13T08:59:44.021Z,62.20
2018-11-13T09:02:12.292Z,60.90
2018-11-13T09:04:40.619Z,60.10
2018-11-13T09:07:08.957Z,58.00
2018-11-13T09:09:37.483Z,58.00
2018-11-13T09:12:06.049Z,57.30
2018-11-13T09:14:34.904Z,56.40
2018-11-13T09:17:03.497Z,54.90
2018-11-13T09:19:32.900Z,53.30
2018-11-13T09:22:01.225Z,52.80
2018-11-13T09:24:29.593Z,51.20
2018-11-13T09:26:57.978Z,50.70
2018-11-13T09:29:26.269Z,50.30
2018-11-13T09:31:55.043Z,50.20
2018-11-13T09:34:23.358Z,49.30
2018-11-13T09:36:51.608Z,46.50
2018-11-13T09:39:20.437Z,44.10
2018-11-13T09:41:48.994Z,43.70
2018-11-13T09:44:17.297Z,43.10
2018-11-13T09:46:45.835Z,42.60
2018-11-13T09:49:14.172Z,44.60
2018-11-13T09:51:42.693Z,45.60
2018-11-13T09:54:11.139Z,45.40
2018-11-13T09:56:39.622Z,46.70
2018-11-13T09:59:08.140Z,45.60
2018-11-13T10:01:36.842Z,44.50
2018-11-13T10:04:05.642Z,45.30
2018-11-13T10:06:33.382Z,45.90
2018-11-13T10:09:01.819Z,46.70
2018-11-13T10:11:30.400Z,47.80
2018-11-13T10:13:58.766Z,49.60
2018-11-13T10:16:27.084Z,52.10
2018-11-13T10:18:55.673Z,54.50
2018-11-13T10:21:24.304Z,55.30
2018-11-13T10:23:52.752Z,56.60
2018-11-13T10:26:21.203Z,58.50
2018-11-13T10:28:49.568Z,58.70
2018-11-13T10:31:18.039Z,59.30
2018-11-13T10:33:46.576Z,61.30
2018-11-13T10:36:15.126Z,63.10
2018-11-13T10:38:43.752Z,63.80
2018-11-13T10:41:12.452Z,64.10
2018-11-13T10:43:40.916Z,65.70
2018-11-13T10:46:09.275Z,66.80
2018-11-13T10:48:37.835Z,67.10
2018-11-13T10:51:06.405Z,66.90
2018-11-13T10:53:34.997Z,66.60
2018-11-13T10:56:03.506Z,66.50
2018-11-13T10:58:31.990Z,65.70
2018-11-13T11:01:05.993Z,66.10
2018-11-13T11:03:39.859Z,64.10
2018-11-13T11:06:08.243Z,63.40
2018-11-13T11:08:36.841Z,63.60
2018-11-13T11:11:05.451Z,62.90
2018-11-13T11:13:34.087Z,63.00
2018-11-13T11:16:02.475Z,62.00
2018-11-13T11:18:30.935Z,62.20
2018-11-13T11:20:59.389Z,62.40
2018-11-13T11:23:27.757Z,62.70
2018-11-13T11:25:56.223Z,63.60
2018-11-13T11:28:24.847Z,64.60
2018-11-13T11:30:53.251Z,65.40
2018-11-13T11:33:21.843Z,66.30
2018-11-13T11:35:50.420Z,66.50
2018-11-13T11:38:18.824Z,67.20
2018-11-13T11:40:47.332Z,67.40
2018-11-13T11:43:15.711Z,68.10
2018-11-13T11:45:44.134Z,68.60
2018-11-13T11:48:12.659Z,69.10
2018-11-13T11:50:41.310Z,69.10
2018-11-13T11:53:09.785Z,69.20
2018-11-13T11:55:38.130Z,69.40
2018-11-13T11:58:06.669Z,69.40
2018-11-13T12:00:35.852Z,69.70
2018-11-13T12:03:04.608Z,70.00
2018-11-13T12:05:32.951Z,70.00
2018-11-13T12:08:01.168Z,70.10
2018-11-13T12:10:29.367Z,70.80
2018-11-13T12:12:57.639Z,71.00
2018-11-13T12:15:25.820Z,71.10
2018-11-13T12:17:54.068Z,71.00
2018-11-13T12:20:22.265Z,70.80
2018-11-13T12:22:50.461Z,70.80
2018-11-13T12:25:20.237Z,70.10
2018-11-13T12:27:47.975Z,70.20
2018-11-13T12:30:17.682Z,70.10
2018-11-13T12:32:46.744Z,69.90
2018-11-13T12:35:15.977Z,70.20
2018-11-13T12:37:44.167Z,70.40
2018-11-13T12:40:15.666Z,70.00
2018-11-13T12:42:46.388Z,70.00
2018-11-13T12:45:12.865Z,70.00
2018-11-13T12:47:41.749Z,69.90
2018-11-13T12:50:10.811Z,69.90
2018-11-13T12:52:39.007Z,70.30
2018-11-13T12:55:09.031Z,70.20
2018-11-13T12:57:38.380Z,70.10
2018-11-13T13:00:15.294Z,70.00
2018-11-13T13:02:43.477Z,70.00
2018-11-13T13:05:11.719Z,70.00
2018-11-13T13:07:40.099Z,70.30
2018-11-13T13:10:10.041Z,69.80
2018-11-13T13:12:38.419Z,69.90
2018-11-13T13:15:08.800Z,70.10
2018-11-13T13:17:37.445Z,70.10
2018-11-13T13:20:10.239Z,70.50
2018-11-13T13:22:38.984Z,70.40
2018-11-13T13:25:09.216Z,70.60
2018-11-13T13:27:37.693Z,70.60
2018-11-13T13:30:07.928Z,70.70
2018-11-13T13:32:36.256Z,70.70
2018-11-13T13:35:14.751Z,70.70
2018-11-13T13:37:42.954Z,70.90
2018-11-13T13:40:11.181Z,70.90
2018-11-13T13:42:39.384Z,70.90
2018-11-13T13:45:07.596Z,71.20
2018-11-13T13:47:35.786Z,71.50
2018-11-13T13:50:04.092Z,71.60
2018-11-13T13:52:32.299Z,71.70
2018-11-13T13:55:00.532Z,71.70
2018-11-13T13:57:28.843Z,71.70
2018-11-13T13:59:57.265Z,71.90
2018-11-13T14:02:25.323Z,71.80
2018-11-13T14:04:53.572Z,71.80
2018-11-13T14:07:21.788Z,71.70
2018-11-13T14:09:50.089Z,72.00
2018-11-13T14:12:18.293Z,71.30
2018-11-13T14:14:46.519Z,71.20
2018-11-13T14:17:14.708Z,70.90
2018-11-13T14:19:42.904Z,70.90
2018-11-13T14:22:11.084Z,71.10
2018-11-13T14:24:39.295Z,71.20
2018-11-13T14:27:07.472Z,71.00
2018-11-13T14:29:35.778Z,71.10
2018-11-13T14:32:03.958Z,70.80
2018-11-13T14:34:32.224Z,71.10
2018-11-13T14:37:00.411Z,70.50
2018-11-13T14:39:28.612Z,70.60
2018-11-13T14:41:56.799Z,70.60
2018-11-13T14:44:25.066Z,70.90
2018-11-13T14:46:53.249Z,70.90
2018-11-13T14:49:21.452Z,71.50
2018-11-13T14:51:49.655Z,72.20
2018-11-13T14:54:17.945Z,73.20
2018-11-13T14:56:46.127Z,73.80
2018-11-13T14:59:14.323Z,74.30
2018-11-13T15:01:42.633Z,74.30
2018-11-13T15:04:10.814Z,75.00
2018-11-13T15:06:39.600Z,74.30
2018-11-13T15:09:08.154Z,74.10
2018-11-13T15:11:36.465Z,74.10
2018-11-13T15:14:04.931Z,75.50
2018-11-13T15:16:33.132Z,75.10
2018-11-13T15:19:01.461Z,75.80
2018-11-13T15:21:29.688Z,75.50
2018-11-13T15:23:57.903Z,75.60
2018-11-13T15:26:26.116Z,76.20
2018-11-13T15:28:54.341Z,76.60
2018-11-13T15:31:22.560Z,76.80
2018-11-13T15:33:50.772Z,76.70
2018-11-13T15:36:19.004Z,77.40
2018-11-13T15:38:47.228Z,78.00
2018-11-13T15:41:15.455Z,77.70
2018-11-13T15:43:43.677Z,77.70
2018-11-13T15:46:11.901Z,77.50
2018-11-13T15:48:40.111Z,77.80
2018-11-13T15:51:09.160Z,78.10
2018-11-13T15:53:36.567Z,78.20
2018-11-13T15:56:04.811Z,78.90
2018-11-13T15:58:33.051Z,79.70
2018-11-13T16:01:01.899Z,79.50
2018-11-13T16:03:34.957Z,78.20
2018-11-13T16:06:03.193Z,78.00
2018-11-13T16:08:31.443Z,77.70
2018-11-13T16:10:59.619Z,77.40
2018-11-13T16:13:27.924Z,78.30
2018-11-13T16:15:56.135Z,78.20
2018-11-13T16:18:25.672Z,78.70
2018-11-13T16:20:53.845Z,78.50
2018-11-13T16:23:22.038Z,78.10
2018-11-13T16:25:50.408Z,79.40
2018-11-13T16:28:18.607Z,80.30
2018-11-13T16:30:47.062Z,80.40
2018-11-13T16:33:15.140Z,80.30
2018-11-13T16:35:43.379Z,79.60
2018-11-13T16:38:12.403Z,80.30
2018-11-13T16:40:41.131Z,80.60
2018-11-13T16:43:08.849Z,81.20
2018-11-13T16:45:37.067Z,82.20
2018-11-13T16:48:06.359Z,82.40
2018-11-13T16:50:35.705Z,83.00
2018-11-13T16:53:04.038Z,83.00
2018-11-13T16:55:37.516Z,83.00
2018-11-13T16:58:06.792Z,82.90
2018-11-13T17:00:35.122Z,83.10
2018-11-13T17:03:03.245Z,83.60
2018-11-13T17:05:31.646Z,84.00
2018-11-13T17:07:59.834Z,84.30
2018-11-13T17:10:29.283Z,84.80
2018-11-13T17:12:58.236Z,85.10
2018-11-13T17:15:27.658Z,85.70
2018-11-13T17:17:56.917Z,86.10
2018-11-13T17:20:25.156Z,86.10
2018-11-13T17:22:53.671Z,86.70
2018-11-13T17:25:23.249Z,86.80
2018-11-13T17:27:52.425Z,86.60
2018-11-13T17:30:22.957Z,86.60
2018-11-13T17:32:51.626Z,86.70
2018-11-13T17:35:21.243Z,87.10
2018-11-13T17:37:50.305Z,87.30
2018-11-13T17:40:21.794Z,87.60
2018-11-13T17:42:50.899Z,88.10
2018-11-13T17:45:24.395Z,88.90
2018-11-13T17:47:52.594Z,89.50
2018-11-13T17:50:23.064Z,90.00
2018-11-13T17:52:51.679Z,90.00
2018-11-13T17:55:20.334Z,90.20
2018-11-13T17:57:50.009Z,90.30
2018-11-13T18:00:26.774Z,90.30
2018-11-13T18:02:55.273Z,90.30
2018-11-13T18:05:24.416Z,90.40
2018-11-13T18:07:54.183Z,90.40
2018-11-13T18:10:24.759Z,90.50
2018-11-13T18:12:53.232Z,90.70
2018-11-13T18:15:22.875Z,90.90
2018-11-13T18:17:51.378Z,91.00
2018-11-13T18:20:24.012Z,91.10
2018-11-13T18:22:52.278Z,91.40
2018-11-13T18:25:22.147Z,91.50
2018-11-13T18:27:51.735Z,91.60
2018-11-13T18:30:25.360Z,91.60
2018-11-13T18:32:54.931Z,91.70
2018-11-13T18:35:24.537Z,91.80
2018-11-13T18:37:53.619Z,91.90
2018-11-13T18:40:22.476Z,92.00
2018-11-13T18:42:51.989Z,92.30
2018-11-13T18:45:22.757Z,92.30
2018-11-13T18:47:50.970Z,92.30
2018-11-13T18:50:22.547Z,92.30
2018-11-13T18:52:50.781Z,92.40
2018-11-13T18:55:19.339Z,92.60
2018-11-13T18:57:49.094Z,92.60
2018-11-13T19:00:24.676Z,92.60
2018-11-13T19:02:52.968Z,92.80
2018-11-13T19:05:21.689Z,92.80
2018-11-13T19:07:50.088Z,92.80
2018-11-13T19:10:27.843Z,92.90
2018-11-13T19:12:57.010Z,93.10
2018-11-13T19:15:25.184Z,93.20
2018-11-13T19:17:53.867Z,93.40
2018-11-13T19:20:23.078Z,93.60
2018-11-13T19:22:51.253Z,93.50
2018-11-13T19:25:22.975Z,93.60
2018-11-13T19:27:51.636Z,93.60
2018-11-13T19:30:20.738Z,93.60
2018-11-13T19:32:48.918Z,93.60
2018-11-13T19:35:17.693Z,93.60
2018-11-13T19:37:46.040Z,93.70
2018-11-13T19:40:17.290Z,93.80
2018-11-13T19:42:46.208Z,93.90
2018-11-13T19:45:14.623Z,93.90
2018-11-13T19:47:42.795Z,94.00
2018-11-13T19:50:13.184Z,94.30
2018-11-13T19:52:41.960Z,94.20
2018-11-13T19:55:11.269Z,94.20
2018-11-13T19:57:39.925Z,94.20
2018-11-13T20:00:09.944Z,94.30
2018-11-13T20:02:38.547Z,94.50
2018-11-13T20:05:07.917Z,94.60
2018-11-13T20:07:36.201Z,94.70
2018-11-13T20:10:07.460Z,94.70
2018-11-13T20:12:35.765Z,94.80
2018-11-13T20:15:03.976Z,94.80
2018-11-13T20:17:32.164Z,94.80
2018-11-13T20:20:00.483Z,95.00
2018-11-13T20:22:28.997Z,95.10
2018-11-13T20:24:56.898Z,95.20
2018-11-13T20:27:25.101Z,95.20
2018-11-13T20:32:27.894Z,95.40
2018-11-13T20:34:56.099Z,95.40
2018-11-13T20:37:24.343Z,95.30
2018-11-13T20:39:52.529Z,95.40
2018-11-13T20:42:20.715Z,95.40
2018-11-13T20:44:49.045Z,95.50
2018-11-13T20:47:17.179Z,95.50
2018-11-13T20:49:45.385Z,95.80
2018-11-13T20:52:16.326Z,96.00
2018-11-13T20:54:44.527Z,96.00
2018-11-13T20:57:12.738Z,96.10
2018-11-13T20:59:40.910Z,96.20
2018-11-13T21:02:09.112Z,96.10
2018-11-13T21:04:37.283Z,96.10
2018-11-13T21:07:05.475Z,96.00
2018-11-13T21:09:33.671Z,96.00
2018-11-13T21:12:01.855Z,95.90
2018-11-13T21:14:30.040Z,95.90
2018-11-13T21:16:58.420Z,96.00
2018-11-13T21:19:26.399Z,95.90
2018-11-13T21:21:54.587Z,95.90
2018-11-13T21:24:22.762Z,95.80
2018-11-13T21:26:50.950Z,95.70
2018-11-13T21:29:19.130Z,95.80
2018-11-13T21:31:47.326Z,96.00
2018-11-13T21:34:15.511Z,95.90
2018-11-13T21:36:43.728Z,96.10
2018-11-13T21:39:12.762Z,96.20
2018-11-13T21:41:40.952Z,96.10
2018-11-13T21:44:09.514Z,96.00
2018-11-13T21:46:38.119Z,95.90
2018-11-13T21:49:06.327Z,95.90
2018-11-13T21:51:35.784Z,95.80
2018-11-13T21:54:03.952Z,95.80
2018-11-13T21:56:32.218Z,95.80
2018-11-13T21:59:00.423Z,95.90
2018-11-13T22:01:28.663Z,95.90
2018-11-13T22:03:56.866Z,96.00
2018-11-13T22:06:24.998Z,96.10
2018-11-13T22:08:53.197Z,96.10
2018-11-13T22:11:21.563Z,96.10
2018-11-13T22:13:49.743Z,96.10
2018-11-13T22:16:17.947Z,96.00
2018-11-13T22:18:46.134Z,96.10
2018-11-13T22:21:14.440Z,96.00
2018-11-13T22:23:42.539Z,96.00
2018-11-13T22:26:10.728Z,96.10
2018-11-13T22:28:39.048Z,96.20
2018-11-13T22:31:07.107Z,96.20
2018-11-13T22:33:35.304Z,96.30
2018-11-13T22:36:03.484Z,96.20
2018-11-13T22:38:31.691Z,96.20
2018-11-13T22:40:59.894Z,96.20
2018-11-13T22:43:28.084Z,96.10
2018-11-13T22:45:56.286Z,96.10
2018-11-13T22:48:24.510Z,96.10
2018-11-13T22:50:52.757Z,96.10
2018-11-13T22:53:20.875Z,96.00
2018-11-13T22:55:49.050Z,96.00
2018-11-13T22:58:17.235Z,96.00
2018-11-13T23:00:47.101Z,95.90
2018-11-13T23:03:19.163Z,95.90
2018-11-13T23:05:48.263Z,96.00
2018-11-13T23:08:17.778Z,96.00
2018-11-13T23:10:45.966Z,96.00
2018-11-13T23:13:14.188Z,95.90
2018-11-13T23:15:42.364Z,95.90
2018-11-13T23:18:10.687Z,96.00
2018-11-13T23:20:38.878Z,95.90
2018-11-13T23:23:07.112Z,95.90
2018-11-13T23:25:35.328Z,95.90
2018-11-13T23:28:03.728Z,96.00
2018-11-13T23:30:31.755Z,96.10
2018-11-13T23:33:00.377Z,96.10
2018-11-13T23:35:28.498Z,96.20
2018-11-13T23:37:57.931Z,96.20
2018-11-13T23:40:27.196Z,96.20
2018-11-13T23:42:55.421Z,96.10
2018-11-13T23:45:24.674Z,96.20
2018-11-13T23:47:52.997Z,96.20
2018-11-13T23:50:21.174Z,96.10
2018-11-13T23:52:50.426Z,96.20
2018-11-13T23:55:18.594Z,96.20
2018-11-13T23:57:47.282Z,96.20
